Kayenta, AZ

2:38 AM MST on January 21, 2017 (GMT -0700)
Page | | Change Station

Elev 4311 ft 36.93 °N, 111.45 °W | Updated 45 minutes ago

Snow
Snow
37 °F
Feels Like 37 °F
N
0
Wind Variable Wind from North

Today
High -- | Low -- °F
--% Chance of Precip.
Yesterday
High -- | Low -- °F
Precip. -- in
Pressure 29.28 in
Visibility 10.0 miles
Clouds Few 6000 ft
Mostly Cloudy 7500 ft
Overcast 10000 ft
Dew Point 31 °F
Humidity 79%
Rainfall 0.06 in
Snow Depth Not available.
7:30 AM 5:35 PM
Last Quarter, 36% visible
METAR KPGA 210853Z AUTO 00000KT 10SM FEW060 BKN075 OVC100 03/M01 A2931 RMK AO2 RAE30 SLP914 P0000 60006 T00281006 56019 TSNO
Pressure 29.28 in
Visibility 10.0 miles
Clouds Few 6000 ft
Mostly Cloudy 7500 ft
Overcast 10000 ft
Dew Point 31 °F
Humidity 79%
Rainfall 0.06 in
Snow Depth Not available.
7:30 AM 5:35 PM
Last Quarter, 36% visible
METAR KPGA 210853Z AUTO 00000KT 10SM FEW060 BKN075 OVC100 03/M01 A2931 RMK AO2 RAE30 SLP914 P0000 60006 T00281006 56019 TSNO

Get Your Daily Forecast Email!

Thanks for signing up!

Be on the lookout for a verification email in your inbox.

You'll start receiving the daily forecast at 8 AM.

×

10-Day Weather Forecast

Almanac

Astronomy

Jan. 21, 2017 Rise Set
Actual Time
Civil Twilight
Nautical Twilight
Astronomical Twilight
Moon
Length of Visible Light
Length of Day
Tomorrow will be .
, % of the Moon is Illuminated

Today's Extremes

State Highs State Lows

Community

WunderPhotos

Upload Photos

1,962,540 photos uploaded!

WunderBlog® & News

Nearby

Air Quality

  Air Quality AQ Index Pollutant
Not available.

Snow Depth

Station Depth Elevation

Earthquake Activity

City Distance Mag. Time & Date
Minimum magnitude displayed is 2.5.

Coastal Water Temperatures

Place Temperature

Stations

Nearby Weather Stations

Station Location Temp. Windchill Dew Point Humidity Wind Precip. Elev Updated Type
                   

Watches & Warnings

There are currently no watches in effect.